»·PEaware :: WAT306 KLAS-KSLC

WAT306 :: KLAS-KSLC

FLIGHT INFORMATION

Flight Status: Arrived
Operator:
Walker Air Transport
More flights by this operator :: More flights under this callsign
Pilot: Ethan S. (29221)
Aircraft: DASSAULT AVIATION FALCON 50
(FA50)
More flights by this aircraft type
Origin: KLAS McCarran Intl
United States
Destination: KSLC Salt Lake City Intl
United States
More flights between these airports :: More routes between these airports
Route: STAAV8 MLF DELTA5
File this flight plan on PilotEdge
Remarks:
Altitude:
(Current/Filed)
35,000ft
Speed:
(Current/Filed)
480kts
Departed: 22-Feb-21 01:39 PM
Arrived: 22-Feb-21 02:41 PM
Distance/Time
Traveled:
319nm/1:02
Distance/Time
To Go:
Arrived

Flight Plot

Page will automatically refresh every two minutes.

Flight plan parsing failed; only flown route is shown


Map Options




Map Legend


Flown Route
Filed Route
Departure Airport
Arrival Airport
Navaid (VOR, NDB)
Fix

Horizontal Profiles

Position Reports

Time Latitude Longitude Heading Altitude Ground
Speed
22-Feb-21 13:07 36.080910 -115.170584 89 2172ft 0kts
22-Feb-21 13:08 36.080910 -115.170584 89 2172ft 0kts
22-Feb-21 13:09 36.080910 -115.170584 89 2172ft 0kts
22-Feb-21 13:10 36.080910 -115.170584 89 2172ft 0kts
22-Feb-21 13:11 36.080910 -115.170584 89 2172ft 0kts
22-Feb-21 13:12 36.080910 -115.170584 89 2172ft 0kts
22-Feb-21 13:13 36.080910 -115.170584 89 2172ft 0kts
22-Feb-21 13:16 36.080910 -115.170584 89 2172ft 0kts
22-Feb-21 13:17 36.080910 -115.170584 89 2172ft 0kts
22-Feb-21 13:18 36.080910 -115.170584 89 2172ft 0kts
22-Feb-21 13:19 36.080910 -115.170584 89 2172ft 0kts
22-Feb-21 13:20 36.080910 -115.170584 89 2172ft 0kts
22-Feb-21 13:21 36.080910 -115.170584 89 2172ft 0kts
22-Feb-21 13:22 36.080910 -115.170584 89 2172ft 0kts
22-Feb-21 13:23 36.080910 -115.170584 89 2172ft 0kts
22-Feb-21 13:24 36.080910 -115.170584 89 2172ft 0kts
22-Feb-21 13:25 36.080724 -115.170189 136 2171ft 5kts
22-Feb-21 13:26 36.078655 -115.170863 201 2179ft 10kts
22-Feb-21 13:27 36.078025 -115.165035 90 2163ft 23kts
22-Feb-21 13:28 36.078031 -115.158720 90 2144ft 20kts
22-Feb-21 13:29 36.078040 -115.152256 88 2119ft 21kts
22-Feb-21 13:30 36.077656 -115.145385 94 2096ft 17kts
22-Feb-21 13:31 36.077531 -115.138361 89 2074ft 21kts
22-Feb-21 13:32 36.077541 -115.131408 90 2054ft 19kts
22-Feb-21 13:33 36.077549 -115.124563 90 2038ft 18kts
22-Feb-21 13:34 36.077406 -115.121403 138 2036ft 0kts
22-Feb-21 13:35 36.076437 -115.121993 269 2038ft 0kts
22-Feb-21 13:36 36.076437 -115.121993 269 2038ft 0kts
22-Feb-21 13:37 36.076437 -115.121993 269 2038ft 0kts
22-Feb-21 13:38 36.076424 -115.132332 269 2058ft 138kts
22-Feb-21 13:39 36.076586 -115.199412 270 4938ft 242kts
22-Feb-21 13:40 36.093013 -115.278094 319 9588ft 256kts
22-Feb-21 13:41 36.159644 -115.279214 42 13239ft 287kts
22-Feb-21 13:42 36.194664 -115.180050 81 15243ft 345kts
22-Feb-21 13:44 36.197723 -115.054642 89 17125ft 375kts
22-Feb-21 13:45 36.199009 -114.923584 88 19901ft 389kts
22-Feb-21 13:46 36.207329 -114.788354 64 22669ft 406kts
22-Feb-21 13:47 36.292166 -114.694053 37 25168ft 418kts
22-Feb-21 13:48 36.383971 -114.606921 38 27658ft 419kts
22-Feb-21 13:49 36.475701 -114.520132 38 30129ft 413kts
22-Feb-21 13:50 36.568372 -114.437351 33 32351ft 410kts
22-Feb-21 13:51 36.664044 -114.362819 33 34394ft 406kts
22-Feb-21 13:52 36.760860 -114.287578 33 35413ft 426kts
22-Feb-21 13:53 36.865362 -114.206255 33 35418ft 460kts
22-Feb-21 13:54 36.976145 -114.119787 33 35412ft 479kts
22-Feb-21 13:55 37.090366 -114.030314 31 35413ft 488kts
22-Feb-21 13:56 37.204719 -113.940417 31 35410ft 485kts
22-Feb-21 13:57 37.318112 -113.850946 31 35410ft 478kts
22-Feb-21 13:58 37.429752 -113.762545 31 35411ft 475kts
22-Feb-21 13:59 37.540977 -113.674156 31 35415ft 473kts
22-Feb-21 14:00 37.651950 -113.585647 31 35426ft 472kts
22-Feb-21 14:01 37.762231 -113.497373 31 35431ft 471kts
22-Feb-21 14:02 37.873304 -113.408147 31 35432ft 477kts
22-Feb-21 14:03 37.985793 -113.317449 31 35430ft 482kts
22-Feb-21 14:04 38.100366 -113.224730 31 35433ft 482kts
22-Feb-21 14:05 38.213314 -113.132974 31 35445ft 482kts
22-Feb-21 14:06 38.326290 -113.041222 30 35447ft 482kts
22-Feb-21 14:06 38.426247 -112.978676 21 35449ft 481kts
22-Feb-21 14:08 38.569467 -112.901656 21 35448ft 480kts
22-Feb-21 14:09 38.692531 -112.835708 20 35448ft 478kts
22-Feb-21 14:09 38.793937 -112.781199 20 35447ft 473kts
22-Feb-21 14:11 38.934110 -112.705571 19 35457ft 468kts
22-Feb-21 14:11 39.033839 -112.651562 16 35465ft 467kts
22-Feb-21 14:12 39.153728 -112.586432 16 35445ft 469kts
22-Feb-21 14:13 39.270966 -112.522952 14 33141ft 442kts
22-Feb-21 14:15 39.403997 -112.472243 9 30020ft 426kts
22-Feb-21 14:16 39.518342 -112.433797 9 27305ft 411kts
22-Feb-21 14:16 39.608972 -112.403602 9 25070ft 399kts
22-Feb-21 14:17 39.716627 -112.367663 10 22327ft 386kts
22-Feb-21 14:18 39.826559 -112.330844 11 19416ft 375kts
22-Feb-21 14:19 39.924631 -112.297850 12 17276ft 341kts
22-Feb-21 14:20 40.007446 -112.269909 11 17003ft 286kts
22-Feb-21 14:21 40.084086 -112.244105 11 17005ft 284kts
22-Feb-21 14:22 40.161657 -112.217828 11 16111ft 287kts
22-Feb-21 14:23 40.239076 -112.191521 12 14899ft 281kts
22-Feb-21 14:24 40.314668 -112.165775 12 13994ft 267kts
22-Feb-21 14:25 40.387623 -112.140940 12 14010ft 275kts
22-Feb-21 14:26 40.460362 -112.116063 12 13232ft 262kts
22-Feb-21 14:27 40.528393 -112.092913 12 13013ft 250kts
22-Feb-21 14:28 40.600591 -112.080399 1 12021ft 268kts
22-Feb-21 14:29 40.678650 -112.083397 353 11016ft 250kts
22-Feb-21 14:30 40.750362 -112.091557 353 10159ft 254kts
22-Feb-21 14:31 40.823796 -112.099039 353 9005ft 236kts
22-Feb-21 14:32 40.885969 -112.104829 353 9020ft 218kts
22-Feb-21 14:33 40.948523 -112.110755 353 8272ft 239kts
22-Feb-21 14:34 40.998376 -112.079011 87 8044ft 236kts
22-Feb-21 14:35 40.975004 -112.000879 141 7396ft 262kts
22-Feb-21 14:36 40.918722 -111.956092 193 6691ft 206kts
22-Feb-21 14:37 40.873131 -111.962303 181 5713ft 133kts
22-Feb-21 14:38 40.837820 -111.962053 181 5029ft 123kts
22-Feb-21 14:39 40.804361 -111.962059 180 4384ft 118kts
22-Feb-21 14:40 40.782452 -111.961771 112 4224ft 16kts
22-Feb-21 14:41 40.781754 -111.960012 181 4226ft 9kts
22-Feb-21 14:42 40.777825 -111.960626 182 4226ft 15kts
22-Feb-21 14:43 40.774824 -111.959883 41 4226ft 4kts
22-Feb-21 14:44 40.774966 -111.959859 0 4226ft 0kts
22-Feb-21 14:45 40.774966 -111.959859 360 4226ft 0kts
22-Feb-21 14:46 40.774966 -111.959859 359 4226ft 0kts
22-Feb-21 14:47 40.774966 -111.959859 359 4226ft 0kts
22-Feb-21 14:48 40.774966 -111.959859 359 4226ft 0kts
22-Feb-21 14:49 40.774966 -111.959859 359 4226ft 0kts
22-Feb-21 14:50 40.774966 -111.959859 359 4226ft 0kts
22-Feb-21 14:51 40.774966 -111.959859 359 4226ft 0kts

Navigation Log

Ident Type
Flight plan parsing failed, navigation log unavailable